Time;durP1;ratioP1;P1;durP2;ratioP2;P2;SDS_P1;SDS_P2;PMS_P1;PMS_P2;Temp;Humidity;BMP_temperature;BMP_pressure;BME280_temperature;BME280_humidity;BME280_pressure;Samples;Min_cycle;Max_cycle;Signal;HPM_P1;HPM_P2
2021/12/29 00:01:40;;;;;;;9.07;3.57;;;;;;;9.19;100.00;99139.41;5011405;28;20664;-50
2021/12/29 00:04:05;;;;;;;11.93;4.57;;;;;;;9.19;100.00;99136.81;5012100;28;20200;-50
2021/12/29 00:06:31;;;;;;;14.23;3.73;;;;;;;9.20;100.00;99129.91;5010383;28;20203;-51
2021/12/29 00:08:58;;;;;;;12.80;3.30;;;;;;;9.17;100.00;99145.47;5010388;28;20218;-49
2021/12/29 00:11:24;;;;;;;16.57;4.20;;;;;;;9.21;100.00;99147.97;5014867;28;20244;-49
2021/12/29 00:13:50;;;;;;;12.97;4.07;;;;;;;9.18;100.00;99144.59;5016384;28;20200;-50
2021/12/29 00:16:16;;;;;;;9.83;3.37;;;;;;;9.17;100.00;99156.66;5019325;28;20902;-50
2021/12/29 00:18:41;;;;;;;8.93;3.47;;;;;;;9.17;100.00;99166.97;5018110;28;20203;-50
2021/12/29 00:21:07;;;;;;;10.93;3.17;;;;;;;9.13;100.00;99166.22;5019361;28;20187;-51
2021/12/29 00:23:33;;;;;;;8.53;2.67;;;;;;;9.17;100.00;99179.03;5009486;28;20241;-51
2021/12/29 00:25:59;;;;;;;7.10;2.57;;;;;;;9.14;100.00;99172.22;5014063;28;20242;-49
2021/12/29 00:28:24;;;;;;;11.30;2.90;;;;;;;9.16;100.00;99170.44;5018192;28;20567;-50
2021/12/29 00:30:50;;;;;;;7.97;2.27;;;;;;;9.16;100.00;99170.44;5016966;28;20595;-50
2021/12/29 00:33:15;;;;;;;6.83;2.27;;;;;;;9.15;100.00;99179.06;5016095;28;20214;-50
2021/12/29 00:35:42;;;;;;;8.57;2.67;;;;;;;9.15;100.00;99179.06;5018398;28;20253;-50
2021/12/29 00:38:12;;;;;;;9.60;2.90;;;;;;;9.15;100.00;99185.06;5008060;28;20228;-50
2021/12/29 00:40:39;;;;;;;9.30;2.80;;;;;;;9.15;100.00;99182.50;5016979;28;20181;-50
2021/12/29 00:43:05;;;;;;;8.67;2.67;;;;;;;9.13;100.00;99202.34;5023646;28;20183;-50
2021/12/29 00:45:35;;;;;;;8.33;3.07;;;;;;;9.13;100.00;99197.19;5021152;28;20278;-51
2021/12/29 00:48:01;;;;;;;8.30;3.07;;;;;;;9.13;100.00;99204.94;5013797;28;20735;-49
2021/12/29 00:50:26;;;;;;;7.10;2.57;;;;;;;9.12;100.00;99208.38;5016653;28;20213;-50
2021/12/29 00:52:52;;;;;;;9.80;3.00;;;;;;;9.12;100.00;99205.81;5012250;28;20674;-50
2021/12/29 00:55:17;;;;;;;7.60;2.63;;;;;;;9.14;100.00;99209.22;5009704;28;20216;-50
2021/12/29 00:57:44;;;;;;;9.53;2.17;;;;;;;9.17;100.00;99215.16;5020470;28;20210;-52
2021/12/29 01:00:17;;;;;;;6.13;1.90;;;;;;;9.12;100.00;99225.59;5017679;28;20240;-50
2021/12/29 01:02:44;;;;;;;8.30;2.40;;;;;;;9.09;100.00;99226.50;5016707;28;20274;-50
2021/12/29 01:05:10;;;;;;;7.67;2.40;;;;;;;9.09;100.00;99241.13;5016849;28;20206;-50
2021/12/29 01:07:36;;;;;;;6.17;2.10;;;;;;;9.09;100.00;99229.09;5015920;28;20715;-51
2021/12/29 01:10:04;;;;;;;7.07;2.47;;;;;;;9.06;100.00;99234.31;5010606;28;20301;-51
2021/12/29 01:12:30;;;;;;;5.73;1.97;;;;;;;9.06;100.00;99243.78;5012312;28;20195;-50
2021/12/29 01:14:56;;;;;;;6.40;1.90;;;;;;;9.05;100.00;99244.66;5009421;28;20188;-50
2021/12/29 01:17:24;;;;;;;6.80;2.20;;;;;;;9.03;100.00;99264.50;5011713;28;20524;-50
2021/12/29 01:19:53;;;;;;;7.60;2.27;;;;;;;8.99;100.00;99280.03;5019115;28;20188;-50
2021/12/29 01:22:19;;;;;;;9.03;1.83;;;;;;;8.95;100.00;99265.47;5018897;28;20567;-50
2021/12/29 01:24:46;;;;;;;4.73;1.83;;;;;;;8.92;100.00;99264.69;5018175;28;20560;-50
2021/12/29 01:27:12;;;;;;;5.47;2.20;;;;;;;8.91;100.00;99244.91;5018315;28;20538;-50
2021/12/29 01:29:38;;;;;;;5.30;1.83;;;;;;;8.90;100.00;99253.53;5019683;28;20645;-50
2021/12/29 01:32:03;;;;;;;6.00;2.13;;;;;;;8.89;100.00;99249.25;5022377;28;20184;-50
2021/12/29 01:34:29;;;;;;;7.13;2.17;;;;;;;8.88;100.00;99261.31;5012325;28;20232;-50
2021/12/29 01:36:55;;;;;;;6.03;2.30;;;;;;;8.88;100.00;99271.66;5013417;28;20743;-50
2021/12/29 01:39:21;;;;;;;4.43;1.70;;;;;;;8.90;100.00;99269.88;5013374;28;20242;-52
2021/12/29 01:41:50;;;;;;;5.30;1.73;;;;;;;8.92;100.00;99286.19;5015801;28;20643;-50
2021/12/29 01:44:17;;;;;;;5.13;2.23;;;;;;;8.91;100.00;99294.81;5021944;28;20323;-50
2021/12/29 01:46:45;;;;;;;6.97;2.17;;;;;;;8.91;100.00;99309.44;5023722;28;20580;-50
2021/12/29 01:49:11;;;;;;;6.70;1.97;;;;;;;8.90;100.00;99306.00;5029736;28;22425;-50
2021/12/29 01:51:47;;;;;;;4.03;1.83;;;;;;;8.92;100.00;99308.56;5020903;28;20179;-50
2021/12/29 01:54:17;;;;;;;5.80;1.67;;;;;;;8.88;100.00;99320.66;5017218;28;20558;-50
2021/12/29 01:56:44;;;;;;;6.50;2.17;;;;;;;8.85;100.00;99318.13;5017627;28;20655;-50
2021/12/29 01:59:10;;;;;;;9.03;2.43;;;;;;;8.87;100.00;99341.31;5022411;28;20183;-50
2021/12/29 02:01:36;;;;;;;7.77;2.70;;;;;;;8.87;100.00;99343.91;5040817;28;20169;-51
2021/12/29 02:04:01;;;;;;;6.13;2.20;;;;;;;8.85;100.00;99341.34;5038311;28;20179;-51
2021/12/29 02:06:27;;;;;;;6.80;2.57;;;;;;;8.84;100.00;99335.34;5020248;28;20274;-50
2021/12/29 02:08:55;;;;;;;7.80;2.30;;;;;;;8.83;100.00;99343.97;5017583;28;20571;-50
2021/12/29 02:11:29;;;;;;;7.73;2.10;;;;;;;8.82;100.00;99337.09;5017221;28;20648;-50
2021/12/29 02:13:59;;;;;;;8.17;2.87;;;;;;;8.83;100.00;99340.53;5030138;28;20685;-50
2021/12/29 02:16:26;;;;;;;10.37;2.60;;;;;;;8.83;100.00;99349.13;5012543;28;20186;-51
2021/12/29 02:18:57;;;;;;;6.03;2.13;;;;;;;8.84;100.00;99347.38;5018229;28;20290;-50
2021/12/29 02:21:25;;;;;;;8.07;2.40;;;;;;;8.80;100.00;99361.22;5021543;28;20320;-51
2021/12/29 02:24:15;;;;;;;5.77;1.97;;;;;;;8.76;100.00;99363.00;5019693;28;20230;-51
2021/12/29 02:26:40;;;;;;;5.67;1.90;;;;;;;8.76;100.00;99367.31;5020289;28;20617;-51
2021/12/29 02:29:09;;;;;;;5.33;2.07;;;;;;;8.76;100.00;99375.91;5004918;28;20576;-51
2021/12/29 02:31:36;;;;;;;6.73;1.90;;;;;;;8.76;100.00;99369.91;5017866;28;20679;-51
2021/12/29 02:34:04;;;;;;;4.03;1.40;;;;;;;8.76;100.00;99369.91;5023839;28;20785;-51
2021/12/29 02:36:30;;;;;;;5.40;1.60;;;;;;;8.76;100.00;99381.06;5018069;28;20694;-51
2021/12/29 02:38:56;;;;;;;2.97;1.50;;;;;;;8.75;100.00;99384.50;5018236;28;20182;-51
2021/12/29 02:41:26;;;;;;;4.27;1.67;;;;;;;8.79;100.00;99387.88;5020340;28;20224;-51
2021/12/29 02:43:59;;;;;;;5.17;1.53;;;;;;;8.80;100.00;99394.75;5023912;28;20655;-51
2021/12/29 02:46:27;;;;;;;6.30;2.00;;;;;;;8.81;100.00;99394.75;5020950;28;20238;-51
2021/12/29 02:48:59;;;;;;;4.33;1.67;;;;;;;8.81;100.00;99404.19;5014063;28;20294;-51
2021/12/29 02:51:25;;;;;;;4.47;1.50;;;;;;;8.82;100.00;99413.63;5012581;28;20193;-51
2021/12/29 02:53:51;;;;;;;7.30;1.67;;;;;;;8.82;100.00;99418.81;5022380;28;20205;-51
2021/12/29 02:56:16;;;;;;;4.37;1.63;;;;;;;8.81;100.00;99428.28;5015468;28;20191;-51
2021/12/29 02:58:41;;;;;;;6.17;1.80;;;;;;;8.80;100.00;99431.75;5021144;28;20204;-51
2021/12/29 03:01:11;;;;;;;4.57;1.70;;;;;;;8.81;100.00;99436.03;5028281;28;20242;-51
2021/12/29 03:03:39;;;;;;;3.60;1.60;;;;;;;8.76;100.00;99436.97;5017190;28;20738;-51
2021/12/29 03:06:06;;;;;;;3.43;1.20;;;;;;;8.72;100.00;99438.72;5010920;28;20207;-51
2021/12/29 03:08:32;;;;;;;6.83;1.77;;;;;;;8.68;100.00;99461.13;5020083;28;20268;-50
2021/12/29 03:10:57;;;;;;;3.63;1.37;;;;;;;8.64;100.00;99461.22;5018125;28;20183;-51
2021/12/29 03:13:25;;;;;;;5.60;1.90;;;;;;;8.62;100.00;99458.63;5013782;28;20277;-51
2021/12/29 03:15:51;;;;;;;4.87;1.63;;;;;;;8.57;100.00;99447.56;5014934;28;20555;-51
2021/12/29 03:18:17;;;;;;;4.83;1.80;;;;;;;8.55;100.00;99467.34;5016365;28;20635;-51
2021/12/29 03:20:43;;;;;;;7.03;1.80;;;;;;;8.51;100.00;99453.66;5023018;28;20186;-51
2021/12/29 03:23:08;;;;;;;5.93;1.77;;;;;;;8.46;100.00;99459.72;5020627;28;20634;-51
2021/12/29 03:25:34;;;;;;;4.43;1.77;;;;;;;8.42;100.00;99453.72;5025203;28;20562;-52
2021/12/29 03:28:00;;;;;;;5.93;1.90;;;;;;;8.41;100.00;99457.19;5014024;28;20242;-51
2021/12/29 03:30:32;;;;;;;4.30;1.43;;;;;;;8.36;100.00;99449.50;5019744;28;20189;-51
2021/12/29 03:33:04;;;;;;;4.07;1.77;;;;;;;8.36;100.00;99451.25;5019691;28;20553;-51
2021/12/29 03:35:40;;;;;;;4.93;1.53;;;;;;;8.35;100.00;99441.81;5025296;28;20240;-51
2021/12/29 03:38:09;;;;;;;2.63;1.03;;;;;;;8.29;100.00;99445.31;5017588;28;20778;-51
2021/12/29 03:40:37;;;;;;;3.90;1.23;;;;;;;8.28;100.00;99453.06;5021071;28;20653;-51
2021/12/29 03:43:05;;;;;;;3.43;1.10;;;;;;;8.28;100.00;99453.94;5018909;28;20189;-51
2021/12/29 03:45:30;;;;;;;3.43;1.30;;;;;;;8.27;100.00;99448.78;5013670;28;20190;-51
2021/12/29 03:47:56;;;;;;;5.60;1.57;;;;;;;8.25;100.00;99466.84;5012490;28;20218;-51
2021/12/29 03:50:22;;;;;;;6.67;1.73;;;;;;;8.24;100.00;99460.84;5016351;28;20195;-51
2021/12/29 03:52:47;;;;;;;7.10;1.80;;;;;;;8.26;100.00;99465.97;5025853;28;20187;-51
2021/12/29 03:55:13;;;;;;;4.70;1.40;;;;;;;8.22;100.00;99457.44;5021773;28;20740;-51
2021/12/29 03:57:39;;;;;;;4.60;1.20;;;;;;;8.19;100.00;99460.06;5019229;28;20220;-51
2021/12/29 04:00:09;;;;;;;2.10;1.07;;;;;;;8.18;100.00;99460.06;5024715;28;20200;-50
2021/12/29 04:02:34;;;;;;;3.03;1.07;;;;;;;8.17;100.00;99451.47;5024787;28;20187;-50
2021/12/29 04:05:01;;;;;;;2.30;0.83;;;;;;;8.18;100.00;99466.06;5018453;28;20611;-50
2021/12/29 04:07:27;;;;;;;2.57;1.00;;;;;;;8.20;100.00;99472.06;5023302;28;20213;-50
2021/12/29 04:09:52;;;;;;;2.97;1.63;;;;;;;8.22;100.00;99479.78;5025194;28;20191;-50
2021/12/29 04:12:18;;;;;;;4.30;1.50;;;;;;;8.24;100.00;99478.03;5020346;28;20243;-50
2021/12/29 04:14:43;;;;;;;4.13;1.83;;;;;;;8.22;100.00;99478.06;5019628;28;20239;-50
2021/12/29 04:17:12;;;;;;;4.63;1.37;;;;;;;8.23;100.00;99489.22;5011278;28;20282;-50
2021/12/29 04:20:54;;;;;;;2.97;1.20;;;;;;;8.24;100.00;99491.75;5012946;28;20314;-50
2021/12/29 04:22:28;;;;;;;5.20;1.60;;;;;;;8.27;100.00;99488.31;5016738;28;20382;-51
2021/12/29 04:24:53;;;;;;;4.00;1.40;;;;;;;8.25;100.00;99497.78;5015677;28;20274;-50
2021/12/29 04:27:22;;;;;;;2.50;1.10;;;;;;;8.26;100.00;99504.66;5012137;28;20480;-51
2021/12/29 04:29:47;;;;;;;2.70;1.17;;;;;;;8.26;100.00;99496.03;5022992;28;20259;-50
2021/12/29 04:32:12;;;;;;;2.90;1.30;;;;;;;8.28;100.00;99496.88;5011979;28;20182;-51
2021/12/29 04:34:38;;;;;;;2.47;1.30;;;;;;;8.28;100.00;99492.59;5014060;28;20262;-51
2021/12/29 04:37:03;;;;;;;5.33;1.40;;;;;;;8.29;100.00;99490.88;5012114;28;20234;-50
2021/12/29 04:39:28;;;;;;;2.77;1.23;;;;;;;8.30;100.00;99490.88;5010279;28;20222;-50
2021/12/29 04:41:54;;;;;;;3.37;1.53;;;;;;;8.30;100.00;99484.84;5014406;28;20713;-50
2021/12/29 04:44:20;;;;;;;3.13;1.03;;;;;;;8.29;100.00;99488.28;5015898;28;20194;-51
2021/12/29 04:46:46;;;;;;;4.87;1.53;;;;;;;8.27;100.00;99487.44;5021291;28;20218;-51
2021/12/29 04:49:14;;;;;;;4.23;1.60;;;;;;;8.23;100.00;99484.94;5017882;28;20237;-50
2021/12/29 04:51:51;;;;;;;2.80;1.30;;;;;;;8.21;100.00;99491.81;5012759;28;20222;-51
2021/12/29 04:54:17;;;;;;;4.17;1.40;;;;;;;8.21;100.00;99493.53;5015079;28;20183;-51
2021/12/29 04:56:43;;;;;;;3.37;1.27;;;;;;;8.20;100.00;99492.69;5012568;28;20580;-51
2021/12/29 04:59:09;;;;;;;3.47;1.33;;;;;;;8.19;100.00;99491.00;5013117;28;20636;-51
2021/12/29 05:01:34;;;;;;;4.23;1.27;;;;;;;8.16;100.00;99496.16;5014933;28;20273;-51
2021/12/29 05:04:00;;;;;;;3.77;1.30;;;;;;;8.12;100.00;99507.38;5019301;28;20181;-51
2021/12/29 05:09:12;;;;;;;4.67;1.53;;;;;;;8.06;100.00;99503.16;5014275;28;20309;-50
2021/12/29 05:11:38;;;;;;;4.67;1.60;;;;;;;8.06;100.00;99503.16;5015560;28;20273;-51
2021/12/29 05:14:03;;;;;;;4.17;1.30;;;;;;;8.07;100.00;99512.59;5009972;28;20194;-50
2021/12/29 05:16:29;;;;;;;3.50;1.40;;;;;;;8.09;100.00;99510.00;5010643;28;20187;-51
2021/12/29 05:18:56;;;;;;;3.80;1.40;;;;;;;8.11;100.00;99510.81;5017521;28;20643;-50
2021/12/29 05:21:22;;;;;;;3.50;1.37;;;;;;;8.13;100.00;99514.25;5020904;28;20197;-50
2021/12/29 05:23:48;;;;;;;2.80;1.30;;;;;;;8.14;100.00;99510.78;5019740;28;20201;-50
2021/12/29 05:26:13;;;;;;;3.60;1.43;;;;;;;8.15;100.00;99512.50;5027360;28;20249;-51
2021/12/29 05:28:39;;;;;;;3.77;1.60;;;;;;;8.16;100.00;99508.22;5020982;28;20230;-50
2021/12/29 05:31:04;;;;;;;6.30;1.87;;;;;;;8.11;100.00;99525.44;5021596;28;20613;-50
2021/12/29 05:33:29;;;;;;;4.77;1.43;;;;;;;8.06;100.00;99523.75;5022310;28;20195;-51
2021/12/29 05:35:55;;;;;;;5.40;1.50;;;;;;;8.03;100.00;99526.38;5027966;28;20183;-51
2021/12/29 05:38:20;;;;;;;2.93;1.47;;;;;;;7.99;100.00;99541.88;5022825;28;20867;-50
2021/12/29 05:40:48;;;;;;;5.33;2.10;;;;;;;7.96;100.00;99547.94;5029320;28;20195;-51
2021/12/29 05:43:14;;;;;;;5.53;1.60;;;;;;;7.94;100.00;99554.81;5020796;28;20538;-50
2021/12/29 05:45:39;;;;;;;4.27;1.67;;;;;;;7.92;100.00;99546.25;5014234;28;20238;-50
2021/12/29 05:48:05;;;;;;;6.33;1.60;;;;;;;7.93;100.00;99547.97;5016524;28;20229;-51
2021/12/29 05:50:31;;;;;;;4.67;1.70;;;;;;;7.92;100.00;99543.66;5019937;28;20241;-52
2021/12/29 05:52:56;;;;;;;4.43;1.87;;;;;;;7.91;100.00;99549.69;5016945;28;20317;-52
2021/12/29 05:55:22;;;;;;;5.67;1.83;;;;;;;7.90;100.00;99543.69;5019353;28;20198;-50
2021/12/29 05:57:48;;;;;;;4.57;1.53;;;;;;;7.92;100.00;99546.25;5014311;28;20246;-50
2021/12/29 06:00:16;;;;;;;3.43;1.27;;;;;;;7.93;100.00;99553.13;5013892;28;20290;-50
2021/12/29 06:02:43;;;;;;;4.00;1.43;;;;;;;7.96;100.00;99537.63;5020628;28;20188;-50
2021/12/29 06:05:08;;;;;;;4.17;1.57;;;;;;;7.98;100.00;99546.19;5018289;28;20201;-50
2021/12/29 06:07:35;;;;;;;4.23;1.37;;;;;;;7.96;100.00;99544.47;5023509;28;20223;-51
2021/12/29 06:10:01;;;;;;;3.77;1.53;;;;;;;7.95;100.00;99548.81;5013991;28;20243;-50
2021/12/29 06:12:26;;;;;;;4.10;1.37;;;;;;;7.93;100.00;99550.53;5025302;28;20185;-50
2021/12/29 06:14:52;;;;;;;3.80;1.27;;;;;;;7.91;100.00;99558.28;5020002;28;20195;-50
2021/12/29 06:17:18;;;;;;;4.50;1.87;;;;;;;7.89;100.00;99562.59;5016487;28;20240;-51
2021/12/29 06:19:43;;;;;;;5.40;1.53;;;;;;;7.88;100.00;99571.19;5033120;28;20177;-52
2021/12/29 06:22:10;;;;;;;4.80;1.40;;;;;;;7.87;100.00;99564.34;5015438;28;20240;-50
2021/12/29 06:24:41;;;;;;;6.67;1.80;;;;;;;7.86;100.00;99569.50;5023991;28;20409;-51
2021/12/29 06:27:06;;;;;;;4.77;1.40;;;;;;;7.85;100.00;99565.22;5041383;28;20207;-50
2021/12/29 06:29:32;;;;;;;3.10;1.43;;;;;;;7.82;100.00;99571.25;5020816;28;20195;-50
2021/12/29 06:32:00;;;;;;;2.27;0.93;;;;;;;7.78;100.00;99567.84;5034448;28;20186;-50
2021/12/29 06:34:25;;;;;;;5.87;1.37;;;;;;;7.79;100.00;99573.84;5031421;28;20179;-50
2021/12/29 06:36:51;;;;;;;5.70;1.67;;;;;;;7.80;100.00;99566.97;5026390;28;20628;-50
2021/12/29 06:39:16;;;;;;;3.17;1.27;;;;;;;7.76;100.00;99579.03;5020859;28;20234;-50
2021/12/29 06:41:42;;;;;;;1.80;1.03;;;;;;;7.70;100.00;99577.38;5018010;28;20684;-50
2021/12/29 06:44:07;;;;;;;2.73;1.27;;;;;;;7.66;100.00;99585.13;5020047;28;20184;-50
2021/12/29 06:46:34;;;;;;;2.93;1.00;;;;;;;7.58;100.00;99588.63;5025400;28;20553;-50
2021/12/29 06:49:00;;;;;;;3.00;1.27;;;;;;;7.54;100.00;99599.81;5027859;28;20214;-50
2021/12/29 06:51:26;;;;;;;2.10;1.00;;;;;;;7.50;100.00;99599.84;5017937;28;20195;-50
2021/12/29 06:53:51;;;;;;;2.10;1.20;;;;;;;7.46;100.00;99607.59;5014190;28;20472;-50
2021/12/29 06:56:16;;;;;;;2.43;1.30;;;;;;;7.44;100.00;99606.75;5027938;28;20194;-51
2021/12/29 06:58:42;;;;;;;2.80;1.17;;;;;;;7.43;100.00;99612.75;5033577;28;20211;-51
2021/12/29 07:01:08;;;;;;;3.60;1.03;;;;;;;7.40;100.00;99610.22;5036832;28;20453;-51
2021/12/29 07:03:34;;;;;;;3.30;1.20;;;;;;;7.37;100.00;99610.25;5024777;28;20543;-50
2021/12/29 07:06:00;;;;;;;3.77;1.57;;;;;;;7.36;100.00;99621.41;5026978;28;20250;-50
2021/12/29 07:08:25;;;;;;;3.27;1.17;;;;;;;7.32;100.00;99609.41;5014542;28;20254;-50
2021/12/29 07:10:51;;;;;;;5.10;1.60;;;;;;;7.35;100.00;99613.66;5024668;28;20272;-51
2021/12/29 07:13:16;;;;;;;4.63;1.30;;;;;;;7.33;100.00;99621.41;5022190;28;20251;-50
2021/12/29 07:15:42;;;;;;;4.70;2.07;;;;;;;7.30;100.00;99624.88;5018405;28;20188;-50
2021/12/29 07:18:07;;;;;;;3.27;1.23;;;;;;;7.30;100.00;99627.44;5028614;28;20220;-50
2021/12/29 07:20:32;;;;;;;4.17;1.63;;;;;;;7.30;100.00;99632.59;5019682;28;20191;-51
2021/12/29 07:22:58;;;;;;;4.57;1.87;;;;;;;7.32;100.00;99632.56;5025542;28;20209;-50
2021/12/29 07:25:24;;;;;;;3.77;1.70;;;;;;;7.30;100.00;99642.00;5025070;28;20281;-50
2021/12/29 07:27:51;;;;;;;2.60;1.47;;;;;;;7.30;100.00;99653.19;5026521;28;20233;-50
2021/12/29 07:30:17;;;;;;;5.27;1.60;;;;;;;7.27;100.00;99660.91;5019364;28;20230;-50
2021/12/29 07:32:43;;;;;;;6.67;1.90;;;;;;;7.26;100.00;99664.34;5027344;28;20606;-51
2021/12/29 07:35:08;;;;;;;4.20;2.00;;;;;;;7.22;100.00;99662.66;5025307;28;20190;-50
2021/12/29 07:37:34;;;;;;;4.47;2.20;;;;;;;7.23;100.00;99663.53;5018720;28;20211;-50
2021/12/29 07:40:01;;;;;;;4.73;2.00;;;;;;;7.26;100.00;99672.06;5027804;28;20247;-51
2021/12/29 07:42:27;;;;;;;4.33;1.53;;;;;;;7.33;100.00;99676.31;5020541;28;20277;-50
2021/12/29 07:44:52;;;;;;;4.87;1.90;;;;;;;7.39;100.00;99675.44;5023156;28;20271;-51
2021/12/29 07:47:18;;;;;;;6.77;2.13;;;;;;;7.44;100.00;99678.00;5029492;28;20575;-51
2021/12/29 07:49:43;;;;;;;2.70;1.47;;;;;;;7.51;100.00;99674.50;5012033;28;20188;-51
2021/12/29 07:52:09;;;;;;;4.40;1.73;;;;;;;7.60;100.00;99684.75;5022354;28;20311;-50
2021/12/29 07:54:35;;;;;;;2.33;1.60;;;;;;;7.67;100.00;99692.41;5027741;28;20181;-50
2021/12/29 07:57:00;;;;;;;3.53;1.57;;;;;;;7.74;100.00;99694.09;5017895;28;20358;-50
2021/12/29 07:59:26;;;;;;;4.13;1.60;;;;;;;7.78;100.00;99696.63;5026303;28;20733;-50
2021/12/29 08:01:51;;;;;;;3.50;1.10;;;;;;;7.84;100.00;99695.75;5023095;28;20200;-50
2021/12/29 08:04:21;;;;;;;2.03;1.20;;;;;;;7.90;100.00;99700.00;5031225;28;20480;-51
2021/12/29 08:06:46;;;;;;;2.07;1.00;;;;;;;7.94;100.00;99705.09;5024919;28;20678;-50
2021/12/29 08:09:12;;;;;;;2.97;1.13;;;;;;;8.00;100.00;99706.81;5023846;28;20302;-50
2021/12/29 08:11:40;;;;;;;1.93;1.00;;;;;;;8.07;100.00;99711.03;5014430;28;20243;-50
2021/12/29 08:14:06;;;;;;;4.40;1.40;;;;;;;8.13;100.00;99704.97;5026145;28;20194;-50
2021/12/29 08:16:32;;;;;;;2.37;1.00;;;;;;;8.22;100.00;99696.28;5026155;28;20245;-50
2021/12/29 08:18:57;;;;;;;2.13;1.13;;;;;;;8.27;100.00;99693.66;5016171;28;20221;-50
2021/12/29 08:21:23;;;;;;;2.27;1.03;;;;;;;8.33;100.00;99693.63;5016856;28;20203;-51
2021/12/29 08:23:48;;;;;;;2.27;1.43;;;;;;;8.35;100.00;99686.75;5019113;28;20196;-51
2021/12/29 08:26:14;;;;;;;3.93;1.17;;;;;;;8.38;100.00;99697.88;5017844;28;20198;-50
2021/12/29 08:28:39;;;;;;;3.93;1.30;;;;;;;8.43;100.00;99702.13;5024786;28;20223;-50
2021/12/29 08:31:04;;;;;;;3.33;1.40;;;;;;;8.49;100.00;99700.38;5027902;28;20179;-50
2021/12/29 08:33:30;;;;;;;5.37;1.60;;;;;;;8.53;100.00;99696.91;5025207;28;20192;-50
2021/12/29 08:35:56;;;;;;;3.73;1.53;;;;;;;8.59;100.00;99696.00;5026664;28;20199;-51
2021/12/29 08:38:22;;;;;;;3.17;1.77;;;;;;;8.63;100.00;99700.22;5022010;28;20747;-51
2021/12/29 08:40:48;;;;;;;3.60;2.07;;;;;;;8.66;100.00;99700.19;5024027;28;20605;-51
2021/12/29 08:43:16;;;;;;;2.83;1.67;;;;;;;8.69;100.00;99696.75;5027597;28;20187;-51
2021/12/29 08:45:42;;;;;;;6.53;2.33;;;;;;;8.72;100.00;99693.28;5015005;28;20188;-51
2021/12/29 08:48:08;;;;;;;7.70;2.50;;;;;;;8.74;100.00;99684.63;5019895;28;20289;-51
2021/12/29 08:50:34;;;;;;;5.20;2.20;;;;;;;8.76;100.00;99693.22;5014986;28;20808;-50
2021/12/29 08:53:02;;;;;;;5.70;2.40;;;;;;;8.76;100.00;99685.47;5015618;28;20183;-50
2021/12/29 08:55:29;;;;;;;5.17;2.30;;;;;;;8.79;100.00;99682.88;5029277;28;20278;-50
2021/12/29 08:57:55;;;;;;;6.90;2.50;;;;;;;8.81;100.00;99677.69;5025114;28;20535;-50
2021/12/29 09:00:21;;;;;;;6.33;2.10;;;;;;;8.83;100.00;99676.81;5025719;28;20256;-52
2021/12/29 09:02:47;;;;;;;6.03;2.73;;;;;;;8.90;100.00;99681.88;5025170;28;20275;-50
2021/12/29 09:05:13;;;;;;;3.87;2.13;;;;;;;8.94;100.00;99686.16;5029718;28;20196;-51
2021/12/29 09:07:40;;;;;;;5.33;2.17;;;;;;;8.98;100.00;99672.34;5027600;28;20236;-50
2021/12/29 09:10:09;;;;;;;4.37;1.97;;;;;;;9.00;100.00;99679.19;5029420;28;20223;-52
2021/12/29 09:12:35;;;;;;;5.37;1.90;;;;;;;9.00;100.00;99689.50;5028367;28;20269;-49
2021/12/29 09:15:01;;;;;;;4.53;2.20;;;;;;;9.03;100.00;99700.66;5021914;28;20712;-50
2021/12/29 09:17:27;;;;;;;4.83;2.50;;;;;;;9.06;100.00;99696.31;5015816;28;20682;-50
2021/12/29 09:19:53;;;;;;;8.23;2.70;;;;;;;9.11;100.00;99685.94;5029206;28;20199;-50
2021/12/29 09:22:18;;;;;;;6.47;2.70;;;;;;;9.14;100.00;99681.59;5027494;28;20192;-51
2021/12/29 09:24:45;;;;;;;5.83;2.97;;;;;;;9.19;100.00;99691.00;5030006;28;20192;-50
2021/12/29 09:27:12;;;;;;;6.07;2.67;;;;;;;9.25;100.00;99698.66;5030418;28;20318;-50
2021/12/29 09:29:37;;;;;;;8.07;2.97;;;;;;;9.25;100.00;99704.66;5021605;28;20188;-51
2021/12/29 09:32:04;;;;;;;5.03;2.30;;;;;;;9.28;100.00;99709.81;5026587;28;20604;-51
2021/12/29 09:34:30;;;;;;;7.13;2.63;;;;;;;9.30;100.00;99715.81;5026812;28;20195;-50
2021/12/29 09:36:55;;;;;;;4.87;2.37;;;;;;;9.32;100.00;99720.94;5028990;28;20289;-51
2021/12/29 09:39:21;;;;;;;4.90;2.27;;;;;;;9.36;100.00;99717.44;5023813;28;20652;-51
2021/12/29 09:41:46;;;;;;;4.43;2.17;;;;;;;9.40;100.00;99718.25;5020978;28;20207;-51
2021/12/29 09:44:12;;;;;;;8.30;2.63;;;;;;;9.45;100.00;99727.66;5025616;28;20202;-51
2021/12/29 09:46:38;;;;;;;3.87;2.10;;;;;;;9.53;100.00;99740.47;5023199;28;20635;-50
2021/12/29 09:49:04;;;;;;;4.80;2.00;;;;;;;9.60;100.00;99731.75;5029296;28;20206;-51
2021/12/29 09:51:30;;;;;;;3.43;1.73;;;;;;;9.68;100.00;99739.41;5020733;28;20217;-51
2021/12/29 09:53:56;;;;;;;4.13;1.90;;;;;;;9.75;100.00;99738.47;5024116;28;20519;-50
2021/12/29 09:56:22;;;;;;;2.83;1.30;;;;;;;9.80;100.00;99732.34;5028068;28;20198;-52
2021/12/29 09:58:47;;;;;;;3.97;1.77;;;;;;;9.80;100.00;99728.06;5017722;28;20303;-51
2021/12/29 10:01:13;;;;;;;4.10;1.47;;;;;;;9.85;100.00;99725.38;5029941;28;20256;-50
2021/12/29 10:03:39;;;;;;;3.10;1.50;;;;;;;9.83;100.00;99722.81;5024162;28;20200;-52
2021/12/29 10:06:07;;;;;;;3.40;1.60;;;;;;;9.82;100.00;99731.47;5035619;28;20191;-51
2021/12/29 10:08:39;;;;;;;2.33;1.40;;;;;;;9.81;100.00;99724.59;5023862;28;20226;-51
2021/12/29 10:11:08;;;;;;;5.50;1.77;;;;;;;9.84;100.00;99728.84;5015045;28;20198;-50
2021/12/29 10:13:36;;;;;;;4.07;1.30;;;;;;;9.84;100.00;99731.44;5030071;28;20196;-50
2021/12/29 10:16:05;;;;;;;3.83;1.80;;;;;;;9.83;100.00;99719.38;5020096;28;20204;-51
2021/12/29 10:18:32;;;;;;;3.80;1.60;;;;;;;9.82;100.00;99717.69;5031653;28;20746;-51
2021/12/29 10:21:05;;;;;;;3.23;1.40;;;;;;;9.80;100.00;99719.44;5016336;28;20187;-50
2021/12/29 10:23:37;;;;;;;3.17;1.47;;;;;;;9.80;100.00;99702.22;5022590;28;20200;-51
2021/12/29 10:26:07;;;;;;;2.80;1.37;;;;;;;9.82;100.00;99697.88;5019994;28;20193;-50
2021/12/29 10:28:34;;;;;;;6.47;2.27;;;;;;;9.82;100.00;99694.41;5022338;28;20220;-50
2021/12/29 10:31:05;;;;;;;6.07;2.07;;;;;;;9.84;100.00;99687.50;5029176;28;20187;-49
2021/12/29 10:33:41;;;;;;;3.67;1.87;;;;;;;9.86;100.00;99691.75;5024545;28;20253;-52
2021/12/29 10:36:17;;;;;;;4.27;1.80;;;;;;;9.86;100.00;99684.00;5020392;28;20201;-50
2021/12/29 10:38:46;;;;;;;5.77;2.10;;;;;;;9.89;100.00;99696.03;5024810;28;20203;-50
2021/12/29 10:41:11;;;;;;;5.63;2.23;;;;;;;9.96;100.00;99704.56;5025730;28;20199;-50
2021/12/29 10:43:40;;;;;;;3.87;1.60;;;;;;;10.02;100.00;99696.69;5024082;28;20195;-50
2021/12/29 10:46:16;;;;;;;4.23;1.80;;;;;;;10.09;100.00;99700.88;5020888;28;20196;-51
2021/12/29 10:48:49;;;;;;;3.53;2.00;;;;;;;10.14;100.00;99699.06;5019112;28;20227;-50
2021/12/29 10:51:15;;;;;;;9.10;2.90;;;;;;;10.17;100.00;99711.94;5026669;28;20193;-51
2021/12/29 10:53:41;;;;;;;4.87;2.20;;;;;;;10.17;100.00;99695.59;5025909;28;20516;-51
2021/12/29 10:56:18;;;;;;;4.33;1.90;;;;;;;10.16;100.00;99701.63;5024548;28;20191;-51
2021/12/29 10:58:44;;;;;;;6.80;2.60;;;;;;;10.13;100.00;99689.63;5025292;28;20237;-51
2021/12/29 11:01:12;;;;;;;3.23;1.90;;;;;;;10.14;100.00;99687.88;5028468;28;20182;-50
2021/12/29 11:03:57;;;;;;;5.93;2.27;;;;;;;10.16;100.00;99686.13;5026120;28;20195;-50
2021/12/29 11:06:25;;;;;;;6.10;2.40;;;;;;;10.15;100.00;99679.25;5016381;28;20342;-52
2021/12/29 11:08:57;;;;;;;5.17;2.30;;;;;;;10.14;100.00;99675.78;5015967;28;20229;-51
2021/12/29 11:11:39;;;;;;;6.27;1.60;;;;;;;10.16;100.00;99673.19;5021491;28;20603;-52
2021/12/29 11:14:21;;;;;;;8.60;2.60;;;;;;;10.12;100.00;99675.00;5021176;28;20656;-50
2021/12/29 11:16:53;;;;;;;6.30;2.13;;;;;;;10.10;100.00;99676.75;5018834;28;20278;-50
2021/12/29 11:19:18;;;;;;;5.10;2.17;;;;;;;10.11;100.00;99677.59;5020060;28;20165;-51
2021/12/29 11:21:44;;;;;;;5.97;1.90;;;;;;;10.14;100.00;99675.78;5015551;28;20184;-51
2021/12/29 11:24:16;;;;;;;9.40;2.63;;;;;;;10.19;100.00;99678.31;5019336;28;20851;-50
2021/12/29 11:26:42;;;;;;;6.53;2.27;;;;;;;10.21;100.00;99680.00;5022651;28;20239;-51
2021/12/29 11:29:10;;;;;;;6.27;2.27;;;;;;;10.24;100.00;99667.91;5027128;28;20615;-50
2021/12/29 11:31:39;;;;;;;6.10;2.90;;;;;;;10.27;100.00;99667.84;5025669;28;20180;-51
2021/12/29 11:34:17;;;;;;;6.33;2.50;;;;;;;10.29;100.00;99664.34;5023672;28;20283;-50